Estación Meteorológica Peña el Pijo (Robertgarden) [ 04/19/21 04:54:09 CEST ]

Fecha Hora Presion(HPa) Temp (°C) Humedad % Rocio (°C) Viento ( m/s) Direccion Lluvia 1Hora(mm) Lluvia 24H(mm) LLuvia Total(mm)
2021-Apr-13 01:09:17 1013.000 9.3 86 7.1 - N     89.61
2021-Apr-13 02:09:36 1012.900 9.1 87 7.0 - N     89.61
2021-Apr-13 03:09:27 1012.100 9.2 87 7.1 - N     89.61
2021-Apr-13 04:09:58 1012.100 9.0 87 7.0 - N     89.61
2021-Apr-13 05:09:26 1011.600 9.1 87 7.0 - N     89.61
2021-Apr-13 06:09:28 1011.400 8.6 88 6.7 - N     89.61
2021-Apr-13 07:09:37 1011.300 8.6 89 6.9 - N     89.61
2021-Apr-13 08:09:14 1011.300 8.3 89 6.6 - N     89.61
2021-Apr-13 09:09:31 1011.500 8.6 89 6.9 - N     89.61
2021-Apr-13 10:09:30 1011.800 9.3 86 7.1 - N     89.61
2021-Apr-13 11:09:41 1011.500 17.9 61 10.2 - N     89.61
2021-Apr-13 12:09:58 1011.400 17.6 59 9.5 - N     89.61
2021-Apr-13 13:09:17 1011.000 20.3 54 10.7 - N     89.61
2021-Apr-13 14:09:25 1010.500 21.1 51 10.6 - N     89.61
2021-Apr-13 15:09:49 1010.400 18.3 57 9.6 - N     89.61
2021-Apr-13 16:09:41 1010.000 18.2 60 10.3 - N     89.61
2021-Apr-13 17:09:38 1009.100 20.2 53 10.3 - N     89.61
2021-Apr-13 18:09:28 1009.100 16.6 58 8.3 - N     89.61
2021-Apr-13 19:09:21 1008.700 16.5 58 8.2 - N     89.61
2021-Apr-13 20:09:30 1008.700 15.1 66 8.8 - N     89.61
2021-Apr-13 21:09:17 1009.100 12.9 73 8.2 - N     89.61
2021-Apr-13 22:09:37 1009.800 11.1 78 7.4 - N     89.61
2021-Apr-13 23:09:42 1010.000 9.9 79 6.4 - N     89.61

Temperatura Máxima:21°    Temperatura Mínima:
Presión Máxima:1013.000 Hpa    Presión Mínima:1008.700 Hpa


Volver